Aérodrome :
LOGIN :

S'inscrire | Disclaimer

   EN    FR    IT 

 










Légende :    VFR   VFR Marginal   IFR   IFR Intensif   IFR Très Intensif
Visi : 
Plafond : 
>= 8 km
>= 3000ft
5 à 8 km
1000 à 3000 ft
1500m à 5 km
500 à 1000 ft
800 à 1500m
200 à 500 ft
< 800m
< 200 ft
Symboles :   Orages  Brouillard  Fortes neiges  Fortes précipitations  Vent > 20 kt
SIGMETs :   Divers  Orages  Givrage  Turbulence  Onde Orograph.  Cendres Volcan.







- Altitude de l'aérodrome : 885 ft
- Code IATA : BAS
- Voir les cartes d'approche


LFSB - Bale-Mulhouse

DERNIER METAR :
  • 251130Z 06004KT 020V140 9999 SCT036 SCT063 22/10 Q1022 NOSIG

METARs EXPIRÉS :
  • 251100Z 01005KT 320V100 9999 SCT036 BKN060 22/10 Q1022 NOSIG
  • 251030Z 04004KT 350V110 9999 SCT036 BKN056 20/10 Q1022 NOSIG
  • 251000Z 03004KT 350V100 9999 SCT031 BKN056 20/10 Q1022 NOSIG
  • 250930Z 35004KT 290V040 9999 SCT031 BKN056 19/10 Q1022 NOSIG
  • 250900Z 03004KT 320V070 9999 FEW031 SCT060 19/10 Q1022 NOSIG

TAF TAF LFSB
Valide du 25 à 12h jusqu'au 26 à 12h UTC


251100Z 2512/2612 01005KT 9999 SCT040 BKN060
PROB40
TEMPO 2514/2518 36010G20KT
BECMG 2516/2518 CAVOK
Météo : +33 3 89 90 31 11
Pas de NOTAMs connus pour ce terrain.



MET'MAP, la Météo Aéronautique d'un coup d'oeil ! - Copyright ORBIFLY Décembre 2007 - Disclaimer

ORBIFLY MET'MAP TEAM :

Programmation & Développement : Alexandra Zaïnal
Conception & Développement : Baudouin d'Aumeries
Co-Programmation & Développement : Marc-Olivier Méhu
Soutien technique & logistique : Manuel Goepfert

Contact : metmap@orbifly.com




SOURCES & CREDITS :

   NOAA